sensor_id;sensor_type;location;lat;lon;timestamp;P1;durP1;ratioP1;P2;durP2;ratioP2
72882;SDS011;61017;37.812;-122.286;2023-08-12T00:01:27;6.50;;;4.40;;
72882;SDS011;61017;37.812;-122.286;2023-08-12T00:02:59;5.38;;;3.78;;
72882;SDS011;61017;37.812;-122.286;2023-08-12T00:04:33;4.82;;;3.97;;
72882;SDS011;61017;37.812;-122.286;2023-08-12T00:06:05;5.22;;;3.90;;
72882;SDS011;61017;37.812;-122.286;2023-08-12T00:07:36;5.43;;;4.30;;
72882;SDS011;61017;37.812;-122.286;2023-08-12T00:09:09;7.03;;;4.13;;
72882;SDS011;61017;37.812;-122.286;2023-08-12T00:10:41;5.80;;;3.92;;
72882;SDS011;61017;37.812;-122.286;2023-08-12T00:12:15;6.25;;;4.20;;
72882;SDS011;61017;37.812;-122.286;2023-08-12T00:13:47;4.80;;;4.15;;
72882;SDS011;61017;37.812;-122.286;2023-08-12T00:15:18;4.97;;;4.25;;
72882;SDS011;61017;37.812;-122.286;2023-08-12T00:16:50;4.57;;;3.75;;
72882;SDS011;61017;37.812;-122.286;2023-08-12T00:18:23;4.93;;;3.88;;
72882;SDS011;61017;37.812;-122.286;2023-08-12T00:19:54;5.97;;;4.13;;
72882;SDS011;61017;37.812;-122.286;2023-08-12T00:21:26;5.00;;;4.43;;
72882;SDS011;61017;37.812;-122.286;2023-08-12T00:22:57;6.00;;;4.00;;
72882;SDS011;61017;37.812;-122.286;2023-08-12T00:24:29;5.05;;;4.13;;
72882;SDS011;61017;37.812;-122.286;2023-08-12T00:26:01;4.90;;;3.88;;
72882;SDS011;61017;37.812;-122.286;2023-08-12T00:27:32;5.97;;;4.38;;
72882;SDS011;61017;37.812;-122.286;2023-08-12T00:29:07;4.88;;;4.07;;
72882;SDS011;61017;37.812;-122.286;2023-08-12T00:30:38;4.85;;;4.00;;
72882;SDS011;61017;37.812;-122.286;2023-08-12T00:32:11;7.40;;;4.20;;
72882;SDS011;61017;37.812;-122.286;2023-08-12T00:33:43;6.18;;;4.40;;
72882;SDS011;61017;37.812;-122.286;2023-08-12T00:35:17;5.28;;;4.28;;
72882;SDS011;61017;37.812;-122.286;2023-08-12T00:36:49;5.30;;;4.15;;
72882;SDS011;61017;37.812;-122.286;2023-08-12T00:38:20;5.10;;;4.28;;
72882;SDS011;61017;37.812;-122.286;2023-08-12T00:39:52;4.45;;;4.05;;
72882;SDS011;61017;37.812;-122.286;2023-08-12T00:41:27;4.95;;;4.22;;
72882;SDS011;61017;37.812;-122.286;2023-08-12T00:42:58;4.65;;;4.15;;
72882;SDS011;61017;37.812;-122.286;2023-08-12T00:44:30;5.97;;;4.20;;
72882;SDS011;61017;37.812;-122.286;2023-08-12T00:46:02;4.80;;;4.30;;
72882;SDS011;61017;37.812;-122.286;2023-08-12T00:47:34;4.57;;;4.10;;
72882;SDS011;61017;37.812;-122.286;2023-08-12T00:49:06;6.95;;;4.70;;
72882;SDS011;61017;37.812;-122.286;2023-08-12T00:50:37;6.38;;;4.22;;
72882;SDS011;61017;37.812;-122.286;2023-08-12T00:52:12;5.28;;;4.35;;
72882;SDS011;61017;37.812;-122.286;2023-08-12T00:53:44;5.18;;;4.43;;
72882;SDS011;61017;37.812;-122.286;2023-08-12T00:56:49;5.88;;;4.50;;
72882;SDS011;61017;37.812;-122.286;2023-08-12T00:58:20;8.60;;;4.30;;
72882;SDS011;61017;37.812;-122.286;2023-08-12T00:59:52;5.28;;;4.38;;
72882;SDS011;61017;37.812;-122.286;2023-08-12T01:01:26;6.25;;;4.70;;
72882;SDS011;61017;37.812;-122.286;2023-08-12T01:02:58;5.40;;;4.18;;
72882;SDS011;61017;37.812;-122.286;2023-08-12T01:04:31;5.15;;;4.30;;
72882;SDS011;61017;37.812;-122.286;2023-08-12T01:06:03;5.05;;;4.50;;
72882;SDS011;61017;37.812;-122.286;2023-08-12T01:07:35;5.35;;;4.50;;
72882;SDS011;61017;37.812;-122.286;2023-08-12T01:09:07;6.40;;;4.40;;
72882;SDS011;61017;37.812;-122.286;2023-08-12T01:10:39;5.43;;;4.30;;
72882;SDS011;61017;37.812;-122.286;2023-08-12T01:12:23;5.40;;;4.15;;
72882;SDS011;61017;37.812;-122.286;2023-08-12T01:15:58;6.28;;;4.57;;
72882;SDS011;61017;37.812;-122.286;2023-08-12T01:17:35;6.65;;;4.47;;
72882;SDS011;61017;37.812;-122.286;2023-08-12T01:19:10;5.50;;;4.65;;
72882;SDS011;61017;37.812;-122.286;2023-08-12T01:20:47;5.70;;;4.85;;
72882;SDS011;61017;37.812;-122.286;2023-08-12T01:22:20;6.45;;;4.55;;
72882;SDS011;61017;37.812;-122.286;2023-08-12T01:23:54;7.28;;;4.35;;
72882;SDS011;61017;37.812;-122.286;2023-08-12T01:25:25;4.72;;;4.20;;
72882;SDS011;61017;37.812;-122.286;2023-08-12T01:26:57;5.50;;;4.32;;
72882;SDS011;61017;37.812;-122.286;2023-08-12T01:28:28;10.23;;;4.40;;
72882;SDS011;61017;37.812;-122.286;2023-08-12T01:30:02;11.82;;;4.70;;
72882;SDS011;61017;37.812;-122.286;2023-08-12T01:31:45;11.57;;;4.35;;
72882;SDS011;61017;37.812;-122.286;2023-08-12T01:33:29;9.98;;;4.53;;
72882;SDS011;61017;37.812;-122.286;2023-08-12T01:35:15;9.50;;;4.32;;
72882;SDS011;61017;37.812;-122.286;2023-08-12T01:37:08;8.57;;;4.30;;
72882;SDS011;61017;37.812;-122.286;2023-08-12T01:38:44;6.90;;;4.80;;
72882;SDS011;61017;37.812;-122.286;2023-08-12T01:40:18;6.25;;;4.20;;
72882;SDS011;61017;37.812;-122.286;2023-08-12T01:41:50;8.52;;;4.65;;
72882;SDS011;61017;37.812;-122.286;2023-08-12T01:43:23;5.97;;;4.40;;
72882;SDS011;61017;37.812;-122.286;2023-08-12T01:44:55;8.65;;;4.57;;
72882;SDS011;61017;37.812;-122.286;2023-08-12T01:46:27;8.52;;;4.72;;
72882;SDS011;61017;37.812;-122.286;2023-08-12T01:47:59;6.63;;;4.45;;
72882;SDS011;61017;37.812;-122.286;2023-08-12T01:49:31;9.95;;;4.47;;
72882;SDS011;61017;37.812;-122.286;2023-08-12T01:51:02;5.68;;;4.40;;
72882;SDS011;61017;37.812;-122.286;2023-08-12T01:52:34;7.07;;;4.55;;
72882;SDS011;61017;37.812;-122.286;2023-08-12T01:54:05;8.43;;;4.60;;
72882;SDS011;61017;37.812;-122.286;2023-08-12T01:55:37;6.53;;;4.35;;
72882;SDS011;61017;37.812;-122.286;2023-08-12T01:57:09;5.35;;;4.60;;
72882;SDS011;61017;37.812;-122.286;2023-08-12T01:58:40;6.28;;;4.20;;
72882;SDS011;61017;37.812;-122.286;2023-08-12T02:00:12;6.78;;;4.35;;
72882;SDS011;61017;37.812;-122.286;2023-08-12T02:01:45;9.30;;;4.63;;
72882;SDS011;61017;37.812;-122.286;2023-08-12T02:03:16;5.38;;;4.63;;
72882;SDS011;61017;37.812;-122.286;2023-08-12T02:04:48;8.63;;;4.68;;
72882;SDS011;61017;37.812;-122.286;2023-08-12T02:06:20;11.38;;;4.60;;
72882;SDS011;61017;37.812;-122.286;2023-08-12T02:07:51;24.83;;;4.75;;
72882;SDS011;61017;37.812;-122.286;2023-08-12T02:09:23;32.13;;;5.75;;
72882;SDS011;61017;37.812;-122.286;2023-08-12T02:10:55;16.40;;;5.32;;
72882;SDS011;61017;37.812;-122.286;2023-08-12T02:12:26;25.42;;;5.07;;
72882;SDS011;61017;37.812;-122.286;2023-08-12T02:13:59;14.00;;;4.85;;
72882;SDS011;61017;37.812;-122.286;2023-08-12T02:15:30;13.65;;;5.18;;
72882;SDS011;61017;37.812;-122.286;2023-08-12T02:17:02;16.15;;;5.47;;
72882;SDS011;61017;37.812;-122.286;2023-08-12T02:18:34;14.57;;;4.80;;
72882;SDS011;61017;37.812;-122.286;2023-08-12T02:20:06;18.65;;;4.97;;
72882;SDS011;61017;37.812;-122.286;2023-08-12T02:21:38;14.10;;;4.93;;
72882;SDS011;61017;37.812;-122.286;2023-08-12T02:23:09;16.52;;;5.15;;
72882;SDS011;61017;37.812;-122.286;2023-08-12T02:24:41;23.13;;;5.57;;
72882;SDS011;61017;37.812;-122.286;2023-08-12T02:26:12;17.73;;;5.20;;
72882;SDS011;61017;37.812;-122.286;2023-08-12T02:27:44;23.80;;;5.10;;
72882;SDS011;61017;37.812;-122.286;2023-08-12T02:29:15;12.95;;;4.60;;
72882;SDS011;61017;37.812;-122.286;2023-08-12T02:30:47;15.23;;;5.05;;
72882;SDS011;61017;37.812;-122.286;2023-08-12T02:32:20;12.68;;;4.47;;
72882;SDS011;61017;37.812;-122.286;2023-08-12T02:33:52;17.20;;;5.28;;
72882;SDS011;61017;37.812;-122.286;2023-08-12T02:35:23;15.25;;;4.93;;
72882;SDS011;61017;37.812;-122.286;2023-08-12T02:36:55;14.82;;;4.70;;
72882;SDS011;61017;37.812;-122.286;2023-08-12T02:38:26;17.55;;;4.80;;
72882;SDS011;61017;37.812;-122.286;2023-08-12T02:39:58;11.23;;;4.65;;
72882;SDS011;61017;37.812;-122.286;2023-08-12T02:41:30;12.15;;;5.00;;
72882;SDS011;61017;37.812;-122.286;2023-08-12T02:43:02;11.60;;;4.88;;
72882;SDS011;61017;37.812;-122.286;2023-08-12T02:44:33;7.88;;;4.70;;
72882;SDS011;61017;37.812;-122.286;2023-08-12T02:46:05;11.65;;;4.82;;
72882;SDS011;61017;37.812;-122.286;2023-08-12T02:47:39;10.77;;;4.95;;
72882;SDS011;61017;37.812;-122.286;2023-08-12T02:49:11;13.35;;;4.80;;
72882;SDS011;61017;37.812;-122.286;2023-08-12T02:50:42;8.52;;;5.07;;
72882;SDS011;61017;37.812;-122.286;2023-08-12T02:52:14;7.60;;;4.95;;
72882;SDS011;61017;37.812;-122.286;2023-08-12T02:53:46;10.98;;;4.72;;
72882;SDS011;61017;37.812;-122.286;2023-08-12T02:55:18;18.13;;;4.88;;
72882;SDS011;61017;37.812;-122.286;2023-08-12T02:56:49;7.60;;;4.70;;
72882;SDS011;61017;37.812;-122.286;2023-08-12T02:58:23;7.57;;;4.68;;
72882;SDS011;61017;37.812;-122.286;2023-08-12T02:59:54;11.82;;;5.32;;
72882;SDS011;61017;37.812;-122.286;2023-08-12T03:01:26;10.93;;;5.05;;
72882;SDS011;61017;37.812;-122.286;2023-08-12T03:02:58;7.53;;;4.72;;
72882;SDS011;61017;37.812;-122.286;2023-08-12T03:04:31;9.35;;;5.05;;
72882;SDS011;61017;37.812;-122.286;2023-08-12T03:06:03;10.80;;;4.78;;
72882;SDS011;61017;37.812;-122.286;2023-08-12T03:07:35;12.00;;;4.78;;
72882;SDS011;61017;37.812;-122.286;2023-08-12T03:09:06;9.00;;;4.40;;
72882;SDS011;61017;37.812;-122.286;2023-08-12T03:10:38;10.85;;;4.88;;
72882;SDS011;61017;37.812;-122.286;2023-08-12T03:12:10;10.40;;;5.10;;
72882;SDS011;61017;37.812;-122.286;2023-08-12T03:13:41;8.80;;;4.80;;
72882;SDS011;61017;37.812;-122.286;2023-08-12T03:15:13;10.63;;;5.18;;
72882;SDS011;61017;37.812;-122.286;2023-08-12T03:16:45;5.65;;;4.70;;
72882;SDS011;61017;37.812;-122.286;2023-08-12T03:18:17;8.25;;;4.75;;
72882;SDS011;61017;37.812;-122.286;2023-08-12T03:19:49;7.63;;;4.47;;
72882;SDS011;61017;37.812;-122.286;2023-08-12T03:21:20;10.98;;;4.65;;
72882;SDS011;61017;37.812;-122.286;2023-08-12T03:22:52;7.68;;;4.70;;
72882;SDS011;61017;37.812;-122.286;2023-08-12T03:24:24;7.38;;;5.13;;
72882;SDS011;61017;37.812;-122.286;2023-08-12T03:25:58;7.63;;;5.03;;
72882;SDS011;61017;37.812;-122.286;2023-08-12T03:27:32;8.15;;;5.05;;
72882;SDS011;61017;37.812;-122.286;2023-08-12T03:29:04;7.03;;;4.55;;
72882;SDS011;61017;37.812;-122.286;2023-08-12T03:30:35;7.55;;;4.80;;
72882;SDS011;61017;37.812;-122.286;2023-08-12T03:32:07;7.45;;;4.80;;
72882;SDS011;61017;37.812;-122.286;2023-08-12T03:33:38;8.85;;;5.00;;
72882;SDS011;61017;37.812;-122.286;2023-08-12T03:35:10;7.55;;;5.35;;
72882;SDS011;61017;37.812;-122.286;2023-08-12T03:36:44;6.90;;;5.20;;
72882;SDS011;61017;37.812;-122.286;2023-08-12T03:38:16;7.32;;;4.90;;
72882;SDS011;61017;37.812;-122.286;2023-08-12T03:39:47;8.95;;;4.72;;
72882;SDS011;61017;37.812;-122.286;2023-08-12T03:41:19;5.43;;;4.75;;
72882;SDS011;61017;37.812;-122.286;2023-08-12T03:42:51;8.32;;;5.10;;
72882;SDS011;61017;37.812;-122.286;2023-08-12T03:44:22;7.60;;;4.90;;
72882;SDS011;61017;37.812;-122.286;2023-08-12T03:45:54;8.73;;;5.07;;
72882;SDS011;61017;37.812;-122.286;2023-08-12T03:47:25;6.60;;;4.65;;
72882;SDS011;61017;37.812;-122.286;2023-08-12T03:48:57;8.48;;;4.90;;
72882;SDS011;61017;37.812;-122.286;2023-08-12T03:50:28;8.02;;;4.88;;
72882;SDS011;61017;37.812;-122.286;2023-08-12T03:52:03;8.48;;;5.13;;
72882;SDS011;61017;37.812;-122.286;2023-08-12T03:53:35;7.93;;;5.10;;
72882;SDS011;61017;37.812;-122.286;2023-08-12T03:55:07;6.57;;;4.63;;
72882;SDS011;61017;37.812;-122.286;2023-08-12T03:56:38;8.10;;;5.47;;
72882;SDS011;61017;37.812;-122.286;2023-08-12T03:58:10;6.88;;;5.05;;
72882;SDS011;61017;37.812;-122.286;2023-08-12T03:59:41;9.77;;;5.30;;
72882;SDS011;61017;37.812;-122.286;2023-08-12T04:01:16;8.68;;;5.00;;
72882;SDS011;61017;37.812;-122.286;2023-08-12T04:02:47;6.65;;;4.95;;
72882;SDS011;61017;37.812;-122.286;2023-08-12T04:04:19;6.93;;;4.95;;
72882;SDS011;61017;37.812;-122.286;2023-08-12T04:05:51;7.38;;;5.18;;
72882;SDS011;61017;37.812;-122.286;2023-08-12T04:07:23;7.55;;;4.68;;
72882;SDS011;61017;37.812;-122.286;2023-08-12T04:08:54;7.43;;;5.38;;
72882;SDS011;61017;37.812;-122.286;2023-08-12T04:10:26;8.82;;;5.47;;
72882;SDS011;61017;37.812;-122.286;2023-08-12T04:11:57;7.95;;;5.05;;
72882;SDS011;61017;37.812;-122.286;2023-08-12T04:13:29;6.30;;;5.03;;
72882;SDS011;61017;37.812;-122.286;2023-08-12T04:15:01;5.53;;;4.70;;
72882;SDS011;61017;37.812;-122.286;2023-08-12T04:16:32;6.43;;;4.90;;
72882;SDS011;61017;37.812;-122.286;2023-08-12T04:18:04;7.25;;;4.90;;
72882;SDS011;61017;37.812;-122.286;2023-08-12T04:19:36;7.18;;;5.03;;
72882;SDS011;61017;37.812;-122.286;2023-08-12T04:21:09;8.48;;;5.32;;
72882;SDS011;61017;37.812;-122.286;2023-08-12T04:22:40;7.57;;;5.10;;
72882;SDS011;61017;37.812;-122.286;2023-08-12T04:24:12;7.97;;;5.30;;
72882;SDS011;61017;37.812;-122.286;2023-08-12T04:25:44;8.23;;;4.93;;
72882;SDS011;61017;37.812;-122.286;2023-08-12T04:27:16;8.57;;;5.45;;
72882;SDS011;61017;37.812;-122.286;2023-08-12T04:28:48;6.80;;;5.07;;
72882;SDS011;61017;37.812;-122.286;2023-08-12T04:30:19;7.50;;;5.40;;
72882;SDS011;61017;37.812;-122.286;2023-08-12T04:31:51;6.38;;;5.60;;
72882;SDS011;61017;37.812;-122.286;2023-08-12T04:33:23;6.78;;;5.15;;
72882;SDS011;61017;37.812;-122.286;2023-08-12T04:34:55;7.82;;;5.32;;
72882;SDS011;61017;37.812;-122.286;2023-08-12T04:36:26;6.78;;;5.15;;
72882;SDS011;61017;37.812;-122.286;2023-08-12T04:37:58;7.95;;;5.40;;
72882;SDS011;61017;37.812;-122.286;2023-08-12T04:39:29;7.57;;;5.50;;
72882;SDS011;61017;37.812;-122.286;2023-08-12T04:41:01;6.68;;;5.20;;
72882;SDS011;61017;37.812;-122.286;2023-08-12T04:42:33;8.63;;;5.10;;
72882;SDS011;61017;37.812;-122.286;2023-08-12T04:44:04;7.53;;;5.30;;
72882;SDS011;61017;37.812;-122.286;2023-08-12T04:45:36;6.00;;;4.90;;
72882;SDS011;61017;37.812;-122.286;2023-08-12T04:47:08;8.17;;;5.40;;
72882;SDS011;61017;37.812;-122.286;2023-08-12T04:48:40;7.63;;;5.32;;
72882;SDS011;61017;37.812;-122.286;2023-08-12T04:50:11;6.72;;;5.13;;
72882;SDS011;61017;37.812;-122.286;2023-08-12T04:51:43;6.57;;;5.25;;
72882;SDS011;61017;37.812;-122.286;2023-08-12T04:53:15;7.55;;;5.30;;
72882;SDS011;61017;37.812;-122.286;2023-08-12T04:54:46;7.78;;;5.40;;
72882;SDS011;61017;37.812;-122.286;2023-08-12T04:56:18;8.18;;;5.80;;
72882;SDS011;61017;37.812;-122.286;2023-08-12T04:57:49;6.45;;;5.00;;
72882;SDS011;61017;37.812;-122.286;2023-08-12T04:59:21;6.50;;;4.90;;
72882;SDS011;61017;37.812;-122.286;2023-08-12T05:00:52;6.75;;;5.03;;
72882;SDS011;61017;37.812;-122.286;2023-08-12T05:02:24;7.25;;;5.50;;
72882;SDS011;61017;37.812;-122.286;2023-08-12T05:03:56;6.28;;;5.18;;
72882;SDS011;61017;37.812;-122.286;2023-08-12T05:05:27;7.18;;;4.97;;
72882;SDS011;61017;37.812;-122.286;2023-08-12T05:06:59;6.55;;;4.82;;
72882;SDS011;61017;37.812;-122.286;2023-08-12T05:08:30;6.80;;;4.93;;
72882;SDS011;61017;37.812;-122.286;2023-08-12T05:10:02;8.25;;;5.40;;
72882;SDS011;61017;37.812;-122.286;2023-08-12T05:11:34;7.27;;;5.00;;
72882;SDS011;61017;37.812;-122.286;2023-08-12T05:13:06;7.30;;;5.53;;
72882;SDS011;61017;37.812;-122.286;2023-08-12T05:14:39;6.63;;;5.10;;
72882;SDS011;61017;37.812;-122.286;2023-08-12T05:16:11;7.05;;;4.57;;
72882;SDS011;61017;37.812;-122.286;2023-08-12T05:17:43;6.90;;;4.97;;
72882;SDS011;61017;37.812;-122.286;2023-08-12T05:19:14;8.48;;;4.53;;
72882;SDS011;61017;37.812;-122.286;2023-08-12T05:20:46;14.32;;;5.28;;
72882;SDS011;61017;37.812;-122.286;2023-08-12T05:22:20;23.10;;;5.20;;
72882;SDS011;61017;37.812;-122.286;2023-08-12T05:24:11;18.08;;;5.13;;
72882;SDS011;61017;37.812;-122.286;2023-08-12T05:25:43;19.55;;;4.97;;
72882;SDS011;61017;37.812;-122.286;2023-08-12T05:27:15;13.70;;;4.30;;
72882;SDS011;61017;37.812;-122.286;2023-08-12T05:28:46;17.42;;;4.65;;
72882;SDS011;61017;37.812;-122.286;2023-08-12T05:30:18;15.27;;;4.90;;
72882;SDS011;61017;37.812;-122.286;2023-08-12T05:31:49;14.82;;;4.40;;
72882;SDS011;61017;37.812;-122.286;2023-08-12T05:33:21;22.02;;;4.63;;
72882;SDS011;61017;37.812;-122.286;2023-08-12T05:34:56;19.63;;;4.40;;
72882;SDS011;61017;37.812;-122.286;2023-08-12T05:36:27;13.95;;;4.70;;
72882;SDS011;61017;37.812;-122.286;2023-08-12T05:37:59;13.60;;;4.43;;
72882;SDS011;61017;37.812;-122.286;2023-08-12T05:39:31;13.20;;;4.70;;
72882;SDS011;61017;37.812;-122.286;2023-08-12T05:41:03;15.55;;;5.07;;
72882;SDS011;61017;37.812;-122.286;2023-08-12T05:42:35;13.32;;;5.03;;
72882;SDS011;61017;37.812;-122.286;2023-08-12T05:44:06;15.43;;;5.45;;
72882;SDS011;61017;37.812;-122.286;2023-08-12T05:45:38;14.23;;;5.20;;
72882;SDS011;61017;37.812;-122.286;2023-08-12T05:47:10;15.68;;;5.05;;
72882;SDS011;61017;37.812;-122.286;2023-08-12T05:48:41;13.20;;;5.20;;
72882;SDS011;61017;37.812;-122.286;2023-08-12T05:50:13;12.63;;;5.05;;
72882;SDS011;61017;37.812;-122.286;2023-08-12T05:51:44;12.70;;;5.13;;
72882;SDS011;61017;37.812;-122.286;2023-08-12T05:53:16;11.18;;;4.75;;
72882;SDS011;61017;37.812;-122.286;2023-08-12T05:54:50;9.77;;;4.68;;
72882;SDS011;61017;37.812;-122.286;2023-08-12T05:56:22;16.48;;;5.30;;
72882;SDS011;61017;37.812;-122.286;2023-08-12T05:57:53;9.50;;;5.00;;
72882;SDS011;61017;37.812;-122.286;2023-08-12T05:59:25;14.73;;;5.30;;
72882;SDS011;61017;37.812;-122.286;2023-08-12T06:00:57;10.35;;;5.90;;
72882;SDS011;61017;37.812;-122.286;2023-08-12T06:02:28;10.02;;;5.40;;
72882;SDS011;61017;37.812;-122.286;2023-08-12T06:04:00;9.88;;;5.45;;
72882;SDS011;61017;37.812;-122.286;2023-08-12T06:05:31;10.80;;;5.20;;
72882;SDS011;61017;37.812;-122.286;2023-08-12T06:07:03;12.63;;;5.78;;
72882;SDS011;61017;37.812;-122.286;2023-08-12T06:08:35;14.13;;;5.85;;
72882;SDS011;61017;37.812;-122.286;2023-08-12T06:10:06;9.95;;;5.35;;
72882;SDS011;61017;37.812;-122.286;2023-08-12T06:11:38;11.40;;;6.38;;
72882;SDS011;61017;37.812;-122.286;2023-08-12T06:13:12;9.75;;;5.50;;
72882;SDS011;61017;37.812;-122.286;2023-08-12T06:14:44;12.35;;;5.88;;
72882;SDS011;61017;37.812;-122.286;2023-08-12T06:16:16;32.05;;;6.95;;
72882;SDS011;61017;37.812;-122.286;2023-08-12T06:17:47;9.32;;;5.32;;
72882;SDS011;61017;37.812;-122.286;2023-08-12T06:19:19;14.30;;;5.03;;
72882;SDS011;61017;37.812;-122.286;2023-08-12T06:20:50;11.60;;;4.28;;
72882;SDS011;61017;37.812;-122.286;2023-08-12T06:22:22;10.48;;;4.70;;
72882;SDS011;61017;37.812;-122.286;2023-08-12T06:23:53;11.73;;;4.32;;
72882;SDS011;61017;37.812;-122.286;2023-08-12T06:25:26;11.20;;;4.35;;
72882;SDS011;61017;37.812;-122.286;2023-08-12T06:26:58;14.00;;;4.82;;
72882;SDS011;61017;37.812;-122.286;2023-08-12T06:28:30;8.38;;;4.43;;
72882;SDS011;61017;37.812;-122.286;2023-08-12T06:30:01;11.63;;;4.80;;
72882;SDS011;61017;37.812;-122.286;2023-08-12T06:31:33;7.18;;;3.97;;
72882;SDS011;61017;37.812;-122.286;2023-08-12T06:33:05;8.57;;;4.20;;
72882;SDS011;61017;37.812;-122.286;2023-08-12T06:34:36;8.00;;;3.78;;
72882;SDS011;61017;37.812;-122.286;2023-08-12T06:36:08;6.72;;;4.25;;
72882;SDS011;61017;37.812;-122.286;2023-08-12T06:37:39;6.88;;;3.90;;
72882;SDS011;61017;37.812;-122.286;2023-08-12T06:39:11;8.93;;;3.75;;
72882;SDS011;61017;37.812;-122.286;2023-08-12T06:40:42;9.38;;;3.50;;
72882;SDS011;61017;37.812;-122.286;2023-08-12T06:42:14;5.60;;;3.60;;
72882;SDS011;61017;37.812;-122.286;2023-08-12T06:43:46;4.88;;;3.25;;
72882;SDS011;61017;37.812;-122.286;2023-08-12T06:45:17;8.50;;;3.55;;
72882;SDS011;61017;37.812;-122.286;2023-08-12T06:46:49;6.15;;;3.38;;
72882;SDS011;61017;37.812;-122.286;2023-08-12T06:48:21;6.18;;;3.17;;
72882;SDS011;61017;37.812;-122.286;2023-08-12T06:49:53;6.03;;;3.20;;
72882;SDS011;61017;37.812;-122.286;2023-08-12T06:51:25;4.55;;;2.92;;
72882;SDS011;61017;37.812;-122.286;2023-08-12T06:52:57;5.78;;;2.70;;
72882;SDS011;61017;37.812;-122.286;2023-08-12T06:54:48;5.53;;;3.20;;
72882;SDS011;61017;37.812;-122.286;2023-08-12T06:56:20;4.78;;;2.70;;
72882;SDS011;61017;37.812;-122.286;2023-08-12T06:57:52;6.50;;;3.03;;
72882;SDS011;61017;37.812;-122.286;2023-08-12T06:59:24;4.53;;;3.20;;
72882;SDS011;61017;37.812;-122.286;2023-08-12T07:00:55;6.05;;;3.05;;
72882;SDS011;61017;37.812;-122.286;2023-08-12T07:02:27;5.63;;;3.50;;
72882;SDS011;61017;37.812;-122.286;2023-08-12T07:03:59;5.15;;;3.28;;
72882;SDS011;61017;37.812;-122.286;2023-08-12T07:05:30;5.70;;;3.25;;
72882;SDS011;61017;37.812;-122.286;2023-08-12T07:07:02;6.00;;;3.47;;
72882;SDS011;61017;37.812;-122.286;2023-08-12T07:08:34;6.20;;;3.40;;
72882;SDS011;61017;37.812;-122.286;2023-08-12T07:10:05;4.50;;;3.08;;
72882;SDS011;61017;37.812;-122.286;2023-08-12T07:11:38;7.37;;;3.97;;
72882;SDS011;61017;37.812;-122.286;2023-08-12T07:13:10;5.78;;;3.40;;
72882;SDS011;61017;37.812;-122.286;2023-08-12T07:14:42;7.18;;;3.10;;
72882;SDS011;61017;37.812;-122.286;2023-08-12T07:16:13;12.48;;;3.55;;
72882;SDS011;61017;37.812;-122.286;2023-08-12T07:17:45;7.78;;;2.95;;
72882;SDS011;61017;37.812;-122.286;2023-08-12T07:19:16;11.63;;;3.55;;
72882;SDS011;61017;37.812;-122.286;2023-08-12T07:20:48;7.47;;;3.55;;
72882;SDS011;61017;37.812;-122.286;2023-08-12T07:22:20;8.55;;;3.85;;
72882;SDS011;61017;37.812;-122.286;2023-08-12T07:23:52;14.25;;;4.03;;
72882;SDS011;61017;37.812;-122.286;2023-08-12T07:25:23;11.30;;;3.80;;
72882;SDS011;61017;37.812;-122.286;2023-08-12T07:26:55;9.27;;;3.80;;
72882;SDS011;61017;37.812;-122.286;2023-08-12T07:28:47;9.88;;;3.58;;
72882;SDS011;61017;37.812;-122.286;2023-08-12T07:30:18;10.77;;;3.20;;
72882;SDS011;61017;37.812;-122.286;2023-08-12T07:31:51;9.43;;;3.58;;
72882;SDS011;61017;37.812;-122.286;2023-08-12T07:33:23;9.75;;;3.25;;
72882;SDS011;61017;37.812;-122.286;2023-08-12T07:34:55;11.02;;;3.67;;
72882;SDS011;61017;37.812;-122.286;2023-08-12T07:36:26;9.85;;;3.83;;
72882;SDS011;61017;37.812;-122.286;2023-08-12T07:37:58;7.80;;;3.53;;
72882;SDS011;61017;37.812;-122.286;2023-08-12T07:39:30;9.82;;;3.67;;
72882;SDS011;61017;37.812;-122.286;2023-08-12T07:41:01;6.85;;;3.70;;
72882;SDS011;61017;37.812;-122.286;2023-08-12T07:42:33;7.72;;;3.70;;
72882;SDS011;61017;37.812;-122.286;2023-08-12T07:44:04;6.30;;;3.60;;
72882;SDS011;61017;37.812;-122.286;2023-08-12T07:45:36;7.22;;;3.70;;
72882;SDS011;61017;37.812;-122.286;2023-08-12T07:47:07;6.47;;;3.50;;
72882;SDS011;61017;37.812;-122.286;2023-08-12T07:48:39;8.55;;;3.55;;
72882;SDS011;61017;37.812;-122.286;2023-08-12T07:50:11;7.65;;;3.35;;
72882;SDS011;61017;37.812;-122.286;2023-08-12T07:51:43;6.28;;;3.20;;
72882;SDS011;61017;37.812;-122.286;2023-08-12T07:53:15;8.70;;;3.67;;
72882;SDS011;61017;37.812;-122.286;2023-08-12T07:54:47;7.85;;;3.80;;
72882;SDS011;61017;37.812;-122.286;2023-08-12T07:56:19;9.20;;;3.97;;
72882;SDS011;61017;37.812;-122.286;2023-08-12T07:57:51;7.93;;;3.65;;
72882;SDS011;61017;37.812;-122.286;2023-08-12T07:59:23;8.02;;;3.83;;
72882;SDS011;61017;37.812;-122.286;2023-08-12T08:00:55;9.82;;;3.83;;
72882;SDS011;61017;37.812;-122.286;2023-08-12T08:02:27;6.70;;;3.45;;
72882;SDS011;61017;37.812;-122.286;2023-08-12T08:05:31;7.40;;;3.85;;
72882;SDS011;61017;37.812;-122.286;2023-08-12T08:07:02;7.45;;;4.05;;
72882;SDS011;61017;37.812;-122.286;2023-08-12T08:08:34;6.13;;;3.70;;
72882;SDS011;61017;37.812;-122.286;2023-08-12T08:10:06;7.03;;;4.03;;
72882;SDS011;61017;37.812;-122.286;2023-08-12T08:11:37;7.57;;;3.57;;
72882;SDS011;61017;37.812;-122.286;2023-08-12T08:13:09;6.00;;;3.65;;
72882;SDS011;61017;37.812;-122.286;2023-08-12T08:14:42;7.70;;;4.07;;
72882;SDS011;61017;37.812;-122.286;2023-08-12T08:16:13;8.27;;;3.70;;
72882;SDS011;61017;37.812;-122.286;2023-08-12T08:17:45;7.78;;;4.07;;
72882;SDS011;61017;37.812;-122.286;2023-08-12T08:19:16;6.72;;;4.03;;
72882;SDS011;61017;37.812;-122.286;2023-08-12T08:20:48;7.28;;;4.00;;
72882;SDS011;61017;37.812;-122.286;2023-08-12T08:22:19;7.20;;;4.15;;
72882;SDS011;61017;37.812;-122.286;2023-08-12T08:23:51;5.45;;;4.18;;
72882;SDS011;61017;37.812;-122.286;2023-08-12T08:25:23;6.32;;;4.00;;
72882;SDS011;61017;37.812;-122.286;2023-08-12T08:26:54;8.35;;;4.22;;
72882;SDS011;61017;37.812;-122.286;2023-08-12T08:28:26;10.95;;;4.90;;
72882;SDS011;61017;37.812;-122.286;2023-08-12T08:29:57;7.30;;;4.65;;
72882;SDS011;61017;37.812;-122.286;2023-08-12T08:31:29;8.10;;;5.68;;
72882;SDS011;61017;37.812;-122.286;2023-08-12T08:33:00;13.02;;;7.13;;
72882;SDS011;61017;37.812;-122.286;2023-08-12T08:34:35;22.52;;;12.32;;
72882;SDS011;61017;37.812;-122.286;2023-08-12T08:36:06;19.05;;;9.45;;
72882;SDS011;61017;37.812;-122.286;2023-08-12T08:37:38;12.88;;;7.75;;
72882;SDS011;61017;37.812;-122.286;2023-08-12T08:39:12;17.65;;;9.35;;
72882;SDS011;61017;37.812;-122.286;2023-08-12T08:40:44;18.25;;;10.70;;
72882;SDS011;61017;37.812;-122.286;2023-08-12T08:42:15;18.60;;;10.35;;
72882;SDS011;61017;37.812;-122.286;2023-08-12T08:43:49;17.13;;;9.73;;
72882;SDS011;61017;37.812;-122.286;2023-08-12T08:45:23;19.75;;;9.68;;
72882;SDS011;61017;37.812;-122.286;2023-08-12T08:46:56;17.23;;;8.90;;
72882;SDS011;61017;37.812;-122.286;2023-08-12T08:48:29;17.08;;;7.97;;
72882;SDS011;61017;37.812;-122.286;2023-08-12T08:50:01;15.35;;;8.48;;
72882;SDS011;61017;37.812;-122.286;2023-08-12T08:51:34;16.48;;;7.70;;
72882;SDS011;61017;37.812;-122.286;2023-08-12T08:53:06;15.43;;;7.78;;
72882;SDS011;61017;37.812;-122.286;2023-08-12T08:54:37;15.35;;;7.72;;
72882;SDS011;61017;37.812;-122.286;2023-08-12T08:57:42;15.45;;;7.57;;